createdAt,value
2023-01-27T00:01:02.019Z,102226.44
2023-01-27T00:03:29.839Z,102220.13
2023-01-27T00:06:01.076Z,102220.28
2023-01-27T00:08:29.091Z,102235.47
2023-01-27T00:11:12.995Z,102229.19
2023-01-27T00:13:40.692Z,102231.00
2023-01-27T00:16:08.731Z,102223.03
2023-01-27T00:18:36.667Z,102227.50
2023-01-27T00:21:23.552Z,102226.81
2023-01-27T00:24:08.907Z,102231.38
2023-01-27T00:26:36.799Z,102233.09
2023-01-27T00:29:04.523Z,102230.44
2023-01-27T00:31:49.725Z,102232.38
2023-01-27T00:34:17.494Z,102220.13
2023-01-27T00:36:46.592Z,102228.88
2023-01-27T00:39:14.513Z,102222.84
2023-01-27T00:41:42.525Z,102223.00
2023-01-27T00:44:13.121Z,102225.56
2023-01-27T00:46:41.709Z,102216.56
2023-01-27T00:49:10.534Z,102214.84
2023-01-27T00:51:38.381Z,102219.13
2023-01-27T00:54:07.644Z,102218.16
2023-01-27T00:56:36.324Z,102215.63
2023-01-27T00:59:04.966Z,102220.84
2023-01-27T01:01:33.997Z,102208.63
2023-01-27T01:04:02.309Z,102205.94
2023-01-27T01:06:30.200Z,102212.75
2023-01-27T01:08:58.732Z,102214.75
2023-01-27T01:11:27.925Z,102208.94
2023-01-27T01:13:56.508Z,102215.97
2023-01-27T01:16:26.003Z,102209.88
2023-01-27T01:18:54.086Z,102209.41
2023-01-27T01:21:21.902Z,102221.88
2023-01-27T01:23:50.057Z,102217.50
2023-01-27T01:26:18.802Z,102213.09
2023-01-27T01:28:47.892Z,102213.78
2023-01-27T01:31:17.927Z,102205.91
2023-01-27T01:33:45.992Z,102199.03
2023-01-27T01:36:15.191Z,102203.47
2023-01-27T01:38:43.096Z,102206.22
2023-01-27T01:41:13.960Z,102207.84
2023-01-27T01:43:41.814Z,102208.59
2023-01-27T01:46:13.123Z,102206.91
2023-01-27T01:48:44.416Z,102203.28
2023-01-27T01:51:14.543Z,102201.56
2023-01-27T01:53:47.642Z,102209.66
2023-01-27T01:56:18.983Z,102213.03
2023-01-27T01:58:48.495Z,102217.66
2023-01-27T02:01:19.985Z,102221.97
2023-01-27T02:03:53.153Z,102223.44
2023-01-27T02:06:21.710Z,102214.16
2023-01-27T02:08:51.190Z,102215.97
2023-01-27T02:11:19.403Z,102212.47
2023-01-27T02:13:47.400Z,102208.97
2023-01-27T02:16:15.275Z,102211.44
2023-01-27T02:18:44.563Z,102199.97
2023-01-27T02:21:12.322Z,102201.69
2023-01-27T02:23:51.519Z,102206.19
2023-01-27T02:26:24.325Z,102207.22
2023-01-27T02:28:57.318Z,102198.31
2023-01-27T02:31:25.763Z,102206.34
2023-01-27T02:33:58.844Z,102210.94
2023-01-27T02:36:28.888Z,102202.94
2023-01-27T02:38:59.584Z,102206.31
2023-01-27T02:41:32.986Z,102200.19
2023-01-27T02:44:01.294Z,102193.88
2023-01-27T02:46:29.470Z,102194.03
2023-01-27T02:48:57.339Z,102196.69
2023-01-27T02:51:25.090Z,102195.81
2023-01-27T02:53:53.080Z,102194.78
2023-01-27T02:56:21.355Z,102187.75
2023-01-27T02:58:50.524Z,102193.25
2023-01-27T03:01:18.301Z,102191.38
2023-01-27T03:03:47.248Z,102185.25
2023-01-27T03:06:15.553Z,102187.19
2023-01-27T03:08:44.097Z,102184.31
2023-01-27T03:11:12.411Z,102184.19
2023-01-27T03:13:40.539Z,102185.03
2023-01-27T03:16:27.539Z,102180.50
2023-01-27T03:18:56.531Z,102174.25
2023-01-27T03:21:24.366Z,102177.09
2023-01-27T03:23:52.281Z,102171.50
2023-01-27T03:26:20.073Z,102176.78
2023-01-27T03:29:07.768Z,102181.44
2023-01-27T03:31:36.948Z,102181.59
2023-01-27T03:34:04.735Z,102181.44
2023-01-27T03:36:50.270Z,102173.31
2023-01-27T03:39:35.639Z,102171.53
2023-01-27T03:42:20.853Z,102168.31
2023-01-27T03:45:06.337Z,102164.97
2023-01-27T03:47:35.402Z,102168.09
2023-01-27T03:50:03.241Z,102160.53
2023-01-27T03:52:31.021Z,102156.31
2023-01-27T03:54:58.728Z,102162.44
2023-01-27T03:57:26.669Z,102154.91
2023-01-27T03:59:54.406Z,102170.69
2023-01-27T04:02:39.425Z,102165.44
2023-01-27T04:05:27.154Z,102158.47
2023-01-27T04:07:54.863Z,102168.03
2023-01-27T04:10:22.649Z,102163.72
2023-01-27T04:12:49.338Z,102164.53
2023-01-27T04:15:18.249Z,102160.28
2023-01-27T04:17:45.955Z,102170.00
2023-01-27T04:20:15.568Z,102163.59
2023-01-27T04:22:43.287Z,102157.50
2023-01-27T04:25:13.242Z,102159.66
2023-01-27T04:27:43.410Z,102156.50
2023-01-27T04:30:12.474Z,102155.56
2023-01-27T04:32:40.290Z,102151.69
2023-01-27T04:35:08.981Z,102155.44
2023-01-27T04:37:38.168Z,102153.94
2023-01-27T04:40:07.193Z,102149.53
2023-01-27T04:42:34.944Z,102146.81
2023-01-27T04:45:02.705Z,102148.47
2023-01-27T04:47:30.447Z,102150.47
2023-01-27T04:49:58.198Z,102155.91
2023-01-27T04:52:25.993Z,102155.16
2023-01-27T04:54:55.153Z,102161.00
2023-01-27T04:57:22.867Z,102155.88
2023-01-27T04:59:51.008Z,102157.47
2023-01-27T05:02:18.709Z,102158.38
2023-01-27T05:04:46.474Z,102148.91
2023-01-27T05:07:14.275Z,102153.25
2023-01-27T05:09:42.197Z,102159.66
2023-01-27T05:12:11.349Z,102157.69
2023-01-27T05:14:39.137Z,102156.13
2023-01-27T05:17:07.061Z,102161.25
2023-01-27T05:19:34.890Z,102153.34
2023-01-27T05:22:02.642Z,102160.44
2023-01-27T05:24:30.436Z,102150.00
2023-01-27T05:26:58.477Z,102151.69
2023-01-27T05:29:27.702Z,102156.97
2023-01-27T05:31:55.652Z,102152.44
2023-01-27T05:34:23.531Z,102152.59
2023-01-27T05:36:51.588Z,102154.28
2023-01-27T05:39:19.674Z,102146.44
2023-01-27T05:41:47.431Z,102151.69
2023-01-27T05:44:15.253Z,102153.41
2023-01-27T05:46:44.398Z,102149.19
2023-01-27T05:49:12.490Z,102152.84
2023-01-27T05:51:40.766Z,102158.03
2023-01-27T05:54:09.591Z,102145.56
2023-01-27T05:56:37.723Z,102143.88
2023-01-27T05:59:05.723Z,102150.25
2023-01-27T06:01:37.260Z,102145.81
2023-01-27T06:04:06.878Z,102154.59
2023-01-27T06:06:34.908Z,102149.25
2023-01-27T06:09:04.221Z,102148.22
2023-01-27T06:11:32.075Z,102151.88
2023-01-27T06:13:59.852Z,102161.53
2023-01-27T06:16:27.682Z,102149.13
2023-01-27T06:18:55.470Z,102162.53
2023-01-27T06:21:24.701Z,102158.06
2023-01-27T06:23:53.439Z,102156.22
2023-01-27T06:26:21.439Z,102159.69
2023-01-27T06:28:49.552Z,102167.69
2023-01-27T06:31:19.716Z,102161.56
2023-01-27T06:33:47.631Z,102167.78
2023-01-27T06:36:16.840Z,102162.56
2023-01-27T06:38:46.589Z,102160.75
2023-01-27T06:41:14.777Z,102159.75
2023-01-27T06:43:42.595Z,102159.81
2023-01-27T06:46:10.403Z,102165.13
2023-01-27T06:48:38.942Z,102161.56
2023-01-27T06:51:07.235Z,102164.13
2023-01-27T06:53:37.225Z,102162.63
2023-01-27T06:56:07.608Z,102166.09
2023-01-27T06:58:35.496Z,102167.00
2023-01-27T07:01:05.265Z,102167.94
2023-01-27T07:06:00.600Z,102161.59
2023-01-27T07:08:28.398Z,102162.56
2023-01-27T07:10:56.184Z,102167.91
2023-01-27T07:13:25.334Z,102167.88
2023-01-27T07:15:56.036Z,102164.34
2023-01-27T07:18:24.694Z,102162.53
2023-01-27T07:20:52.963Z,102163.59
2023-01-27T07:23:20.906Z,102166.22
2023-01-27T07:25:48.765Z,102167.09
2023-01-27T07:28:16.554Z,102164.34
2023-01-27T07:30:45.645Z,102167.13
2023-01-27T07:33:15.340Z,102162.72
2023-01-27T07:35:43.560Z,102169.00
2023-01-27T07:38:11.390Z,102168.91
2023-01-27T07:40:39.119Z,102175.09
2023-01-27T07:43:06.906Z,102170.63
2023-01-27T07:45:34.686Z,102166.22
2023-01-27T07:48:05.800Z,102159.06
2023-01-27T07:50:33.764Z,102158.31
2023-01-27T07:53:02.477Z,102162.66
2023-01-27T07:55:31.266Z,102159.19
2023-01-27T07:57:59.263Z,102171.53
2023-01-27T08:00:28.281Z,102168.75
2023-01-27T08:02:57.638Z,102168.03
2023-01-27T08:05:26.957Z,102181.19
2023-01-27T08:07:58.391Z,102173.91
2023-01-27T08:10:27.023Z,102176.69
2023-01-27T08:12:54.790Z,102169.63
2023-01-27T08:15:22.674Z,102170.66
2023-01-27T08:17:54.993Z,102173.16
2023-01-27T08:20:23.307Z,102174.19
2023-01-27T08:22:52.683Z,102164.31
2023-01-27T08:25:20.793Z,102163.47
2023-01-27T08:27:51.143Z,102174.72
2023-01-27T08:30:19.680Z,102165.91
2023-01-27T08:32:47.916Z,102165.91
2023-01-27T08:35:16.223Z,102172.00
2023-01-27T08:37:44.239Z,102174.63
2023-01-27T08:40:14.930Z,102165.91
2023-01-27T08:42:42.832Z,102176.28
2023-01-27T08:45:10.929Z,102164.91
2023-01-27T08:47:38.669Z,102165.59
2023-01-27T08:50:07.289Z,102167.44
2023-01-27T08:52:35.114Z,102163.00
2023-01-27T08:55:03.038Z,102165.00
2023-01-27T08:57:34.226Z,102165.00
2023-01-27T09:00:06.294Z,102171.19
2023-01-27T09:02:34.106Z,102167.47
2023-01-27T09:05:02.058Z,102176.50
2023-01-27T09:07:29.898Z,102163.16
2023-01-27T09:10:12.729Z,102178.06
2023-01-27T09:12:44.183Z,102172.78
2023-01-27T09:15:12.884Z,102173.84
2023-01-27T09:17:41.338Z,102171.03
2023-01-27T09:20:10.579Z,102179.56
2023-01-27T09:22:40.844Z,102184.19
2023-01-27T09:25:10.247Z,102182.06
2023-01-27T09:27:39.992Z,102179.63
2023-01-27T09:30:11.833Z,102185.81
2023-01-27T09:32:40.148Z,102192.91
2023-01-27T09:35:08.852Z,102195.59
2023-01-27T09:37:40.721Z,102185.63
2023-01-27T09:40:18.648Z,102184.75
2023-01-27T09:43:12.255Z,102187.66
2023-01-27T09:46:05.159Z,102191.66
2023-01-27T09:48:47.734Z,102193.66
2023-01-27T09:51:23.497Z,102189.38
2023-01-27T09:54:11.761Z,102194.97
2023-01-27T09:56:50.338Z,102184.16
2023-01-27T09:59:41.036Z,102181.59
2023-01-27T10:02:23.704Z,102195.59
2023-01-27T10:05:23.346Z,102190.50
2023-01-27T10:08:04.659Z,102195.22
2023-01-27T10:10:49.931Z,102198.31
2023-01-27T10:13:33.960Z,102192.28
2023-01-27T10:16:19.631Z,102189.88
2023-01-27T10:19:02.746Z,102191.50
2023-01-27T10:21:41.743Z,102184.31
2023-01-27T10:24:25.618Z,102196.06
2023-01-27T10:27:00.716Z,102202.38
2023-01-27T10:29:36.686Z,102198.31
2023-01-27T10:32:09.445Z,102200.44
2023-01-27T10:34:47.959Z,102203.94
2023-01-27T10:37:29.818Z,102195.38
2023-01-27T10:40:06.886Z,102199.03
2023-01-27T10:42:40.191Z,102197.16
2023-01-27T10:45:21.302Z,102193.28
2023-01-27T10:48:05.038Z,102191.22
2023-01-27T10:50:37.230Z,102192.19
2023-01-27T10:53:13.368Z,102190.84
2023-01-27T10:55:47.118Z,102186.34
2023-01-27T10:58:22.968Z,102192.66
2023-01-27T11:03:48.639Z,102190.56
2023-01-27T11:06:22.628Z,102186.75
2023-01-27T11:08:54.569Z,102178.56
2023-01-27T11:11:43.450Z,102177.25
2023-01-27T11:14:17.113Z,102179.91
2023-01-27T11:16:50.085Z,102189.41
2023-01-27T11:19:27.491Z,102180.72
2023-01-27T11:22:07.052Z,102187.72
2023-01-27T11:24:44.786Z,102186.22
2023-01-27T11:27:21.282Z,102180.91
2023-01-27T11:29:56.210Z,102179.22
2023-01-27T11:32:37.688Z,102176.47
2023-01-27T11:35:07.370Z,102171.75
2023-01-27T11:37:39.648Z,102172.13
2023-01-27T11:40:17.000Z,102177.00
2023-01-27T11:42:45.259Z,102167.47
2023-01-27T11:45:17.868Z,102176.88
2023-01-27T11:47:47.861Z,102173.28
2023-01-27T11:50:18.492Z,102160.91
2023-01-27T11:52:51.960Z,102151.66
2023-01-27T11:55:21.369Z,102155.47
2023-01-27T11:57:53.821Z,102149.38
2023-01-27T12:00:25.885Z,102149.03
2023-01-27T12:03:04.440Z,102144.09
2023-01-27T12:05:35.930Z,102146.03
2023-01-27T12:08:06.361Z,102146.13
2023-01-27T12:10:35.911Z,102146.97
2023-01-27T12:13:10.260Z,102141.97
2023-01-27T12:15:40.326Z,102150.06
2023-01-27T12:18:15.041Z,102141.63
2023-01-27T12:20:45.229Z,102136.56
2023-01-27T12:23:22.454Z,102133.13
2023-01-27T12:25:55.273Z,102128.50
2023-01-27T12:28:30.154Z,102128.50
2023-01-27T12:31:06.867Z,102127.94
2023-01-27T12:33:37.369Z,102131.97
2023-01-27T12:36:13.488Z,102127.41
2023-01-27T12:38:49.734Z,102120.53
2023-01-27T12:41:24.414Z,102123.84
2023-01-27T12:43:55.768Z,102109.16
2023-01-27T12:46:25.735Z,102114.53
2023-01-27T12:48:55.649Z,102112.03
2023-01-27T12:51:25.246Z,102112.69
2023-01-27T12:54:22.779Z,102107.03
2023-01-27T12:56:52.399Z,102106.19
2023-01-27T12:59:22.461Z,102106.69
2023-01-27T13:02:03.361Z,102101.28
2023-01-27T13:04:32.210Z,102091.47
2023-01-27T13:07:07.977Z,102089.78
2023-01-27T13:09:41.609Z,102086.63
2023-01-27T13:12:17.785Z,102089.25
2023-01-27T13:14:45.747Z,102090.97
2023-01-27T13:17:31.945Z,102081.63
2023-01-27T13:20:04.080Z,102087.56
2023-01-27T13:22:42.296Z,102091.94
2023-01-27T13:25:19.240Z,102079.03
2023-01-27T13:27:49.904Z,102080.22
2023-01-27T13:30:28.122Z,102072.25
2023-01-27T13:33:01.887Z,102064.28
2023-01-27T13:35:35.810Z,102063.13
2023-01-27T13:38:12.087Z,102045.63
2023-01-27T13:40:45.470Z,102052.53
2023-01-27T13:43:19.822Z,102052.88
2023-01-27T13:45:54.893Z,102065.47
2023-01-27T13:48:26.317Z,102064.72
2023-01-27T13:51:03.583Z,102060.88
2023-01-27T13:53:31.520Z,102055.56
2023-01-27T13:56:10.623Z,102058.53
2023-01-27T13:58:51.725Z,102061.13
2023-01-27T14:01:26.325Z,102058.75
2023-01-27T14:04:15.336Z,102063.13
2023-01-27T14:06:53.810Z,102055.34
2023-01-27T14:09:40.744Z,102054.97
2023-01-27T14:12:20.187Z,102063.19
2023-01-27T14:14:58.960Z,102061.53
2023-01-27T14:17:39.095Z,102055.81
2023-01-27T14:20:24.698Z,102053.25
2023-01-27T14:23:03.788Z,102045.78
2023-01-27T14:25:40.377Z,102054.41
2023-01-27T14:28:20.297Z,102055.53
2023-01-27T14:30:56.602Z,102061.06
2023-01-27T14:33:36.644Z,102058.88
2023-01-27T14:36:17.118Z,102056.84
2023-01-27T14:38:58.752Z,102048.22
2023-01-27T14:41:33.249Z,102053.25
2023-01-27T14:44:14.118Z,102058.50
2023-01-27T14:46:57.144Z,102060.56
2023-01-27T14:49:40.772Z,102066.06
2023-01-27T14:52:22.255Z,102068.19
2023-01-27T14:55:16.552Z,102077.72
2023-01-27T14:57:55.773Z,102079.97
2023-01-27T15:00:37.914Z,102068.28
2023-01-27T15:03:27.981Z,102060.69
2023-01-27T15:06:01.599Z,102059.16
2023-01-27T15:08:40.200Z,102060.16
2023-01-27T15:11:29.300Z,102057.16
2023-01-27T15:14:21.682Z,102063.78
2023-01-27T15:17:06.426Z,102065.75
2023-01-27T15:19:54.207Z,102069.19
2023-01-27T15:22:46.482Z,102072.78
2023-01-27T15:25:34.247Z,102083.53
2023-01-27T15:28:03.677Z,102083.66
2023-01-27T15:30:34.502Z,102077.69
2023-01-27T15:33:03.735Z,102087.75
2023-01-27T15:35:41.385Z,102093.19
2023-01-27T15:38:21.169Z,102087.66
2023-01-27T15:41:04.759Z,102094.25
2023-01-27T15:43:34.092Z,102092.41
2023-01-27T15:46:23.367Z,102084.13
2023-01-27T15:48:52.533Z,102079.50
2023-01-27T15:51:22.410Z,102079.50
2023-01-27T15:53:52.714Z,102076.47
2023-01-27T15:56:21.725Z,102083.78
2023-01-27T15:58:56.954Z,102079.91
2023-01-27T16:01:28.075Z,102084.19
2023-01-27T16:04:08.955Z,102091.38
2023-01-27T16:06:45.108Z,102088.72
2023-01-27T16:09:21.242Z,102093.13
2023-01-27T16:12:01.397Z,102091.38
2023-01-27T16:14:40.869Z,102089.94
2023-01-27T16:17:19.029Z,102091.84
2023-01-27T16:19:57.199Z,102089.06
2023-01-27T16:22:26.771Z,102100.72
2023-01-27T16:24:56.825Z,102103.63
2023-01-27T16:27:37.310Z,102094.22
2023-01-27T16:30:16.041Z,102096.47
2023-01-27T16:32:59.686Z,102093.09
2023-01-27T16:35:29.438Z,102099.91
2023-01-27T16:38:03.585Z,102089.44
2023-01-27T16:40:33.538Z,102090.63
2023-01-27T16:43:06.094Z,102102.97
2023-01-27T16:45:43.478Z,102106.81
2023-01-27T16:48:32.767Z,102106.59
2023-01-27T16:51:15.995Z,102107.19
2023-01-27T16:53:47.876Z,102108.69
2023-01-27T16:56:22.876Z,102112.25
2023-01-27T16:58:51.356Z,102111.66
2023-01-27T17:01:23.767Z,102116.03
2023-01-27T17:03:55.318Z,102119.97
2023-01-27T17:06:26.986Z,102123.34
2023-01-27T17:08:54.820Z,102129.53
2023-01-27T17:11:25.370Z,102122.25
2023-01-27T17:13:59.344Z,102124.22
2023-01-27T17:16:30.843Z,102120.63
2023-01-27T17:19:05.254Z,102121.84
2023-01-27T17:21:40.093Z,102128.91
2023-01-27T17:24:16.263Z,102121.03
2023-01-27T17:26:46.790Z,102125.53
2023-01-27T17:29:17.699Z,102130.94
2023-01-27T17:31:45.601Z,102131.75
2023-01-27T17:34:18.348Z,102129.28
2023-01-27T17:37:14.359Z,102135.47
2023-01-27T17:39:42.417Z,102134.91
2023-01-27T17:42:14.955Z,102136.19
2023-01-27T17:44:42.706Z,102143.44
2023-01-27T17:47:15.035Z,102145.44
2023-01-27T17:49:44.084Z,102146.06
2023-01-27T17:52:21.639Z,102150.63
2023-01-27T17:54:51.533Z,102153.97
2023-01-27T17:57:22.850Z,102156.63
2023-01-27T18:00:01.675Z,102162.06
2023-01-27T18:02:32.331Z,102159.59
2023-01-27T18:05:03.650Z,102165.84
2023-01-27T18:07:34.011Z,102164.75
2023-01-27T18:10:01.805Z,102172.78
2023-01-27T18:12:35.499Z,102174.72
2023-01-27T18:15:33.542Z,102167.72
2023-01-27T18:18:02.444Z,102181.91
2023-01-27T18:20:30.693Z,102171.25
2023-01-27T18:22:59.934Z,102179.25
2023-01-27T18:25:27.743Z,102187.13
2023-01-27T18:27:57.257Z,102185.50
2023-01-27T18:30:26.056Z,102186.25
2023-01-27T18:33:01.335Z,102194.06
2023-01-27T18:35:31.038Z,102188.84
2023-01-27T18:38:01.917Z,102190.63
2023-01-27T18:40:31.832Z,102190.66
2023-01-27T18:43:00.273Z,102187.63
2023-01-27T18:45:28.805Z,102192.22
2023-01-27T18:47:57.147Z,102191.59
2023-01-27T18:50:26.173Z,102199.25
2023-01-27T18:52:54.320Z,102198.59
2023-01-27T18:55:25.492Z,102197.88
2023-01-27T18:57:54.890Z,102204.19
2023-01-27T19:00:25.346Z,102204.00
2023-01-27T19:02:58.966Z,102214.47
2023-01-27T19:05:29.067Z,102213.47
2023-01-27T19:07:57.328Z,102221.56
2023-01-27T19:10:28.534Z,102223.16
2023-01-27T19:12:58.579Z,102224.88
2023-01-27T19:15:27.901Z,102229.53
2023-01-27T19:17:58.093Z,102232.31
2023-01-27T19:20:28.245Z,102240.28
2023-01-27T19:22:57.434Z,102239.47
2023-01-27T19:25:30.672Z,102241.00
2023-01-27T19:28:03.854Z,102242.16
2023-01-27T19:30:35.978Z,102247.31
2023-01-27T19:33:04.946Z,102253.94
2023-01-27T19:35:33.211Z,102256.50
2023-01-27T19:38:05.555Z,102253.56
2023-01-27T19:40:34.827Z,102255.47
2023-01-27T19:43:02.613Z,102263.38
2023-01-27T19:45:30.384Z,102262.56
2023-01-27T19:47:59.767Z,102265.03
2023-01-27T19:50:30.316Z,102273.09
2023-01-27T19:52:58.454Z,102266.94
2023-01-27T19:55:26.594Z,102273.22
2023-01-27T19:57:55.738Z,102279.25
2023-01-27T20:00:26.939Z,102287.47
2023-01-27T20:02:55.471Z,102285.69
2023-01-27T20:05:24.212Z,102296.34
2023-01-27T20:07:52.006Z,102296.00
2023-01-27T20:10:25.752Z,102285.41
2023-01-27T20:12:59.754Z,102286.09
2023-01-27T20:15:30.843Z,102297.81
2023-01-27T20:17:58.712Z,102301.44
2023-01-27T20:20:28.150Z,102304.53
2023-01-27T20:22:55.938Z,102304.22
2023-01-27T20:25:25.484Z,102297.16
2023-01-27T20:27:57.195Z,102306.06
2023-01-27T20:30:27.097Z,102307.19
2023-01-27T20:32:56.508Z,102297.22
2023-01-27T20:35:25.257Z,102308.91
2023-01-27T20:37:54.335Z,102304.34
2023-01-27T20:40:24.609Z,102315.72
2023-01-27T20:42:53.291Z,102313.84
2023-01-27T20:45:23.485Z,102316.38
2023-01-27T20:47:52.655Z,102319.09
2023-01-27T20:50:21.879Z,102315.09
2023-01-27T20:52:50.315Z,102315.03
2023-01-27T20:55:19.652Z,102319.63
2023-01-27T20:57:47.678Z,102316.81
2023-01-27T21:00:17.981Z,102319.34
2023-01-27T21:02:47.537Z,102331.88
2023-01-27T21:05:16.226Z,102322.88
2023-01-27T21:07:44.192Z,102317.13
2023-01-27T21:10:12.623Z,102325.13
2023-01-27T21:12:40.342Z,102328.66
2023-01-27T21:15:11.288Z,102335.75
2023-01-27T21:17:39.149Z,102338.38
2023-01-27T21:20:09.953Z,102344.53
2023-01-27T21:22:37.696Z,102339.16
2023-01-27T21:25:06.022Z,102345.47
2023-01-27T21:27:34.149Z,102345.41
2023-01-27T21:30:01.903Z,102348.94
2023-01-27T21:32:29.817Z,102346.38
2023-01-27T21:34:58.588Z,102356.03
2023-01-27T21:37:27.769Z,102358.75
2023-01-27T21:39:55.474Z,102353.44
2023-01-27T21:42:48.927Z,102359.63
2023-01-27T21:45:17.353Z,102354.31
2023-01-27T21:47:45.167Z,102359.59
2023-01-27T21:50:14.807Z,102356.97
2023-01-27T21:52:45.892Z,102349.97
2023-01-27T21:55:15.537Z,102356.13
2023-01-27T21:57:45.663Z,102360.56
2023-01-27T22:00:14.990Z,102358.78
2023-01-27T22:02:43.342Z,102351.69
2023-01-27T22:05:12.799Z,102349.06
2023-01-27T22:07:41.681Z,102355.19
2023-01-27T22:10:16.144Z,102349.03
2023-01-27T22:12:44.440Z,102352.53
2023-01-27T22:15:15.361Z,102344.66
2023-01-27T22:17:44.153Z,102347.28
2023-01-27T22:20:14.085Z,102345.53
2023-01-27T22:22:41.969Z,102346.41
2023-01-27T22:25:13.766Z,102337.59
2023-01-27T22:27:42.220Z,102342.91
2023-01-27T22:30:11.342Z,102346.44
2023-01-27T22:32:39.250Z,102334.94
2023-01-27T22:35:08.151Z,102339.38
2023-01-27T22:37:37.773Z,102327.91
2023-01-27T22:40:07.425Z,102328.78
2023-01-27T22:42:38.375Z,102319.97
2023-01-27T22:45:07.306Z,102323.50
2023-01-27T22:47:35.157Z,102327.88
2023-01-27T22:50:02.992Z,102332.31
2023-01-27T22:52:30.904Z,102335.81
2023-01-27T22:54:58.661Z,102344.63
2023-01-27T22:57:30.306Z,102338.47
2023-01-27T23:00:00.341Z,102340.25
2023-01-27T23:02:29.870Z,102334.06
2023-01-27T23:04:57.771Z,102334.06
2023-01-27T23:07:26.039Z,102324.38
2023-01-27T23:09:53.879Z,102326.13
2023-01-27T23:12:21.755Z,102330.53
2023-01-27T23:14:49.450Z,102337.59
2023-01-27T23:17:18.649Z,102331.44
2023-01-27T23:19:46.379Z,102338.50
2023-01-27T23:22:14.206Z,102339.38
2023-01-27T23:24:42.063Z,102343.78
2023-01-27T23:27:09.866Z,102346.41
2023-01-27T23:29:37.639Z,102339.34
2023-01-27T23:32:05.663Z,102345.53
2023-01-27T23:34:34.761Z,102347.28
2023-01-27T23:37:02.587Z,102349.94
2023-01-27T23:39:30.413Z,102358.75
2023-01-27T23:41:58.163Z,102357.00
2023-01-27T23:44:25.920Z,102356.09
2023-01-27T23:46:53.627Z,102354.34
2023-01-27T23:49:21.416Z,102349.94
2023-01-27T23:51:50.459Z,102347.28
2023-01-27T23:54:18.349Z,102349.94
2023-01-27T23:56:46.555Z,102349.06
2023-01-27T23:59:14.414Z,102352.56
